createdAt,value
2022-09-01T00:01:47.305Z,16.56
2022-09-01T00:04:17.475Z,16.43
2022-09-01T00:06:44.342Z,16.24
2022-09-01T00:09:15.851Z,16.28
2022-09-01T00:11:50.521Z,16.27
2022-09-01T00:14:30.851Z,16.17
2022-09-01T00:17:03.137Z,16.35
2022-09-01T00:19:30.024Z,16.26
2022-09-01T00:21:57.068Z,16.29
2022-09-01T00:24:26.342Z,16.28
2022-09-01T00:26:54.887Z,16.20
2022-09-01T00:29:22.190Z,16.36
2022-09-01T00:31:49.780Z,16.33
2022-09-01T00:34:17.472Z,16.38
2022-09-01T00:36:44.163Z,16.38
2022-09-01T00:39:11.042Z,16.09
2022-09-01T00:41:42.772Z,16.18
2022-09-01T00:44:13.538Z,16.03
2022-09-01T00:46:49.767Z,16.02
2022-09-01T00:49:24.770Z,16.04
2022-09-01T00:51:55.363Z,16.05
2022-09-01T00:54:27.478Z,16.02
2022-09-01T00:56:57.538Z,16.15
2022-09-01T00:59:27.056Z,16.17
2022-09-01T01:01:55.153Z,15.99
2022-09-01T01:04:22.738Z,15.90
2022-09-01T01:06:58.514Z,16.10
2022-09-01T01:09:27.754Z,16.10
2022-09-01T01:11:56.019Z,16.33
2022-09-01T01:14:23.837Z,16.41
2022-09-01T01:16:52.344Z,16.28
2022-09-01T01:19:58.475Z,16.41
2022-09-01T01:23:03.757Z,16.33
2022-09-01T01:25:35.361Z,16.33
2022-09-01T01:28:13.330Z,16.39
2022-09-01T01:30:43.762Z,16.33
2022-09-01T01:33:11.510Z,16.34
2022-09-01T01:35:39.695Z,16.42
2022-09-01T01:38:08.019Z,16.31
2022-09-01T01:40:36.954Z,16.25
2022-09-01T01:43:05.779Z,16.14
2022-09-01T01:45:32.659Z,15.83
2022-09-01T01:48:01.205Z,16.36
2022-09-01T01:50:35.986Z,16.29
2022-09-01T01:53:10.987Z,16.23
2022-09-01T01:55:41.834Z,16.07
2022-09-01T01:58:09.907Z,16.05
2022-09-01T02:00:36.879Z,15.31
2022-09-01T02:03:05.491Z,15.43
2022-09-01T02:05:35.455Z,15.26
2022-09-01T02:08:06.142Z,15.57
2022-09-01T02:10:39.284Z,15.42
2022-09-01T02:13:09.027Z,15.18
2022-09-01T02:15:44.291Z,14.73
2022-09-01T02:18:26.449Z,15.02
2022-09-01T02:20:59.019Z,14.88
2022-09-01T02:23:25.892Z,15.16
2022-09-01T02:26:15.527Z,15.60
2022-09-01T02:28:54.390Z,15.75
2022-09-01T02:31:28.039Z,15.76
2022-09-01T02:33:56.176Z,15.81
2022-09-01T02:36:25.517Z,15.76
2022-09-01T02:38:56.452Z,15.71
2022-09-01T02:41:25.202Z,15.54
2022-09-01T02:43:52.652Z,15.45
2022-09-01T02:46:24.271Z,15.56
2022-09-01T02:48:51.560Z,15.61
2022-09-01T02:51:20.871Z,15.57
2022-09-01T02:53:49.855Z,15.68
2022-09-01T02:56:18.233Z,15.13
2022-09-01T02:58:46.378Z,15.08
2022-09-01T03:01:22.305Z,15.05
2022-09-01T03:03:54.107Z,14.86
2022-09-01T03:06:24.432Z,14.60
2022-09-01T03:08:59.677Z,14.77
2022-09-01T03:11:29.609Z,14.43
2022-09-01T03:13:56.811Z,14.54
2022-09-01T03:16:23.650Z,15.12
2022-09-01T03:18:51.505Z,15.37
2022-09-01T03:21:20.423Z,15.22
2022-09-01T03:23:50.131Z,15.12
2022-09-01T03:26:21.107Z,15.34
2022-09-01T03:28:51.047Z,15.55
2022-09-01T03:31:20.071Z,15.42
2022-09-01T03:33:48.946Z,15.18
2022-09-01T03:36:22.241Z,15.35
2022-09-01T03:38:51.477Z,15.53
2022-09-01T03:41:25.609Z,15.51
2022-09-01T03:43:56.844Z,15.45
2022-09-01T03:46:24.404Z,15.36
2022-09-01T03:48:55.303Z,15.63
2022-09-01T03:51:23.444Z,15.47
2022-09-01T03:53:54.551Z,15.44
2022-09-01T03:56:24.217Z,15.44
2022-09-01T03:58:52.745Z,15.07
2022-09-01T04:01:19.864Z,15.11
2022-09-01T04:03:51.308Z,14.99
2022-09-01T04:06:24.113Z,15.20
2022-09-01T04:08:57.878Z,15.40
2022-09-01T04:11:25.350Z,15.71
2022-09-01T04:13:53.116Z,15.56
2022-09-01T04:16:45.697Z,15.64
2022-09-01T04:19:25.352Z,15.57
2022-09-01T04:22:00.238Z,15.53
2022-09-01T04:24:32.715Z,15.40
2022-09-01T04:27:02.400Z,15.66
2022-09-01T04:29:31.484Z,15.65
2022-09-01T04:32:02.663Z,15.32
2022-09-01T04:34:37.539Z,15.05
2022-09-01T04:37:09.040Z,14.72
2022-09-01T04:39:36.904Z,14.82
2022-09-01T04:42:09.248Z,14.59
2022-09-01T04:44:37.086Z,14.89
2022-09-01T04:47:11.000Z,15.04
2022-09-01T04:49:38.031Z,15.07
2022-09-01T04:52:05.083Z,14.82
2022-09-01T04:54:35.832Z,14.45
2022-09-01T04:57:03.089Z,14.81
2022-09-01T04:59:36.076Z,14.98
2022-09-01T05:02:02.982Z,15.12
2022-09-01T05:04:35.146Z,15.36
2022-09-01T05:07:03.094Z,15.41
2022-09-01T05:09:37.176Z,15.55
2022-09-01T05:12:23.102Z,15.35
2022-09-01T05:14:49.953Z,15.54
2022-09-01T05:17:18.771Z,15.62
2022-09-01T05:19:48.722Z,15.69
2022-09-01T05:22:17.778Z,15.74
2022-09-01T05:24:55.534Z,15.88
2022-09-01T05:27:23.422Z,16.01
2022-09-01T05:29:50.502Z,16.06
2022-09-01T05:32:17.562Z,16.35
2022-09-01T05:34:46.163Z,16.20
2022-09-01T05:37:14.632Z,16.34
2022-09-01T05:39:41.393Z,16.35
2022-09-01T05:42:08.550Z,16.42
2022-09-01T05:44:44.153Z,16.76
2022-09-01T05:47:20.494Z,16.54
2022-09-01T05:49:50.479Z,16.40
2022-09-01T05:52:17.343Z,16.20
2022-09-01T05:54:48.061Z,16.44
2022-09-01T05:57:33.879Z,16.29
2022-09-01T06:00:12.353Z,16.07
2022-09-01T06:02:43.168Z,16.17
2022-09-01T06:05:15.906Z,16.41
2022-09-01T06:07:44.352Z,16.81
2022-09-01T06:10:14.515Z,16.64
2022-09-01T06:12:41.612Z,16.70
2022-09-01T06:15:16.230Z,16.60
2022-09-01T06:17:47.754Z,16.71
2022-09-01T06:20:18.317Z,16.91
2022-09-01T06:22:45.590Z,16.90
2022-09-01T06:25:12.281Z,16.91
2022-09-01T06:27:44.862Z,17.22
2022-09-01T06:30:23.109Z,17.21
2022-09-01T06:33:10.631Z,17.50
2022-09-01T06:35:42.144Z,17.26
2022-09-01T06:38:14.424Z,17.38
2022-09-01T06:40:45.233Z,17.56
2022-09-01T06:43:16.376Z,17.87
2022-09-01T06:45:54.495Z,18.15
2022-09-01T06:48:23.666Z,17.50
2022-09-01T06:53:42.335Z,17.87
2022-09-01T06:56:13.570Z,18.25
2022-09-01T06:58:41.880Z,18.36
2022-09-01T07:01:15.395Z,18.53
2022-09-01T07:03:43.592Z,18.72
2022-09-01T07:09:20.103Z,18.71
2022-09-01T07:12:08.891Z,19.03
2022-09-01T07:17:42.344Z,19.39
2022-09-01T07:20:27.281Z,19.64
2022-09-01T07:23:05.475Z,19.64
2022-09-01T07:28:39.826Z,19.29
2022-09-01T07:39:53.132Z,19.56
2022-09-01T07:45:58.656Z,21.33
2022-09-01T07:48:36.711Z,20.87
2022-09-01T07:51:35.945Z,20.40
2022-09-01T07:54:04.202Z,20.49
2022-09-01T07:56:31.162Z,20.20
2022-09-01T07:58:58.779Z,20.06
2022-09-01T08:01:27.975Z,20.07
2022-09-01T08:03:58.464Z,20.45
2022-09-01T08:06:27.229Z,20.39
2022-09-01T08:08:59.147Z,20.57
2022-09-01T08:14:18.127Z,20.00
2022-09-01T08:16:53.243Z,20.43
2022-09-01T08:19:21.035Z,20.33
2022-09-01T08:22:05.967Z,20.71
2022-09-01T08:24:53.717Z,20.53
2022-09-01T08:27:21.403Z,21.08
2022-09-01T08:29:48.857Z,20.56
2022-09-01T08:32:15.671Z,20.75
2022-09-01T08:34:43.594Z,21.13
2022-09-01T08:37:10.906Z,20.90
2022-09-01T08:39:39.572Z,20.85
2022-09-01T08:42:33.289Z,20.89
2022-09-01T08:45:11.637Z,21.18
2022-09-01T08:47:56.564Z,21.38
2022-09-01T08:50:25.723Z,21.58
2022-09-01T08:53:36.145Z,21.95
2022-09-01T08:56:03.298Z,21.98
2022-09-01T08:58:32.300Z,22.01
2022-09-01T09:01:40.751Z,22.27
2022-09-01T09:04:47.569Z,22.31
2022-09-01T09:07:35.984Z,22.16
2022-09-01T09:10:18.874Z,22.35
2022-09-01T09:13:09.037Z,21.90
2022-09-01T09:15:42.633Z,22.27
2022-09-01T09:18:39.060Z,22.71
2022-09-01T09:21:17.632Z,22.37
2022-09-01T09:23:48.183Z,21.91
2022-09-01T09:26:21.875Z,22.03
2022-09-01T09:28:55.195Z,22.52
2022-09-01T09:31:43.154Z,22.03
2022-09-01T09:34:30.471Z,22.65
2022-09-01T09:36:57.466Z,22.81
2022-09-01T09:39:24.155Z,22.86
2022-09-01T09:42:09.151Z,23.24
2022-09-01T09:44:45.249Z,22.70
2022-09-01T09:47:44.182Z,22.80
2022-09-01T09:50:20.549Z,22.88
2022-09-01T09:52:49.007Z,22.56
2022-09-01T09:55:23.383Z,22.59
2022-09-01T09:57:53.120Z,22.68
2022-09-01T10:00:34.314Z,23.27
2022-09-01T10:03:07.811Z,23.67
2022-09-01T10:05:51.566Z,23.63
2022-09-01T10:08:45.813Z,23.44
2022-09-01T10:11:41.943Z,23.21
2022-09-01T10:14:35.888Z,23.56
2022-09-01T10:17:19.145Z,23.17
2022-09-01T10:20:13.723Z,23.64
2022-09-01T10:22:41.353Z,23.75
2022-09-01T10:25:13.490Z,23.88
2022-09-01T10:27:44.359Z,24.13
2022-09-01T10:30:20.688Z,24.50
2022-09-01T10:32:56.896Z,23.64
2022-09-01T10:35:29.795Z,23.30
2022-09-01T10:38:00.311Z,24.12
2022-09-01T10:40:31.207Z,24.13
2022-09-01T10:43:21.100Z,24.72
2022-09-01T10:45:53.447Z,24.55
2022-09-01T10:48:31.913Z,24.88
2022-09-01T10:51:19.099Z,25.63
2022-09-01T10:53:48.955Z,24.60
2022-09-01T10:56:36.906Z,24.99
2022-09-01T10:59:43.439Z,25.60
2022-09-01T11:02:26.065Z,26.35
2022-09-01T11:05:00.301Z,27.06
2022-09-01T11:08:00.451Z,27.46
2022-09-01T11:10:50.142Z,28.01
2022-09-01T11:13:42.832Z,29.92
2022-09-01T11:16:50.111Z,31.96
2022-09-01T11:19:47.128Z,33.35
2022-09-01T11:22:54.245Z,32.28
2022-09-01T11:28:42.054Z,33.33
2022-09-01T11:31:08.910Z,34.41
2022-09-01T11:33:59.561Z,34.32
2022-09-01T11:36:48.495Z,31.18
2022-09-01T11:39:19.271Z,29.13
2022-09-01T11:42:04.475Z,29.11
2022-09-01T11:44:42.791Z,31.29
2022-09-01T11:47:17.166Z,31.62
2022-09-01T11:49:51.081Z,32.31
2022-09-01T11:52:20.574Z,32.01
2022-09-01T11:54:48.411Z,31.16
2022-09-01T11:57:24.244Z,31.97
2022-09-01T11:59:51.659Z,31.62
2022-09-01T12:02:25.360Z,30.94
2022-09-01T12:04:55.013Z,31.12
2022-09-01T12:07:45.150Z,29.58
2022-09-01T12:10:27.526Z,29.25
2022-09-01T12:13:12.280Z,28.80
2022-09-01T12:16:07.028Z,26.84
2022-09-01T12:18:35.650Z,27.59
2022-09-01T12:21:05.055Z,27.70
2022-09-01T12:23:40.615Z,27.27
2022-09-01T12:26:12.448Z,27.18
2022-09-01T12:28:41.625Z,26.89
2022-09-01T12:31:16.170Z,27.46
2022-09-01T12:33:43.804Z,26.95
2022-09-01T12:36:19.612Z,26.51
2022-09-01T12:38:46.384Z,26.45
2022-09-01T12:41:35.167Z,25.55
2022-09-01T12:44:32.240Z,25.82
2022-09-01T12:47:12.150Z,25.64
2022-09-01T12:49:50.632Z,26.24
2022-09-01T12:52:19.944Z,26.79
2022-09-01T12:54:59.996Z,26.93
2022-09-01T12:57:35.543Z,27.03
2022-09-01T13:00:12.025Z,27.19
2022-09-01T13:02:38.753Z,26.87
2022-09-01T13:05:39.466Z,26.27
2022-09-01T13:08:12.407Z,26.24
2022-09-01T13:10:43.133Z,26.57
2022-09-01T13:13:11.744Z,26.11
2022-09-01T13:15:40.465Z,25.67
2022-09-01T13:18:07.175Z,25.32
2022-09-01T13:20:33.992Z,24.94
2022-09-01T13:23:00.748Z,25.69
2022-09-01T13:25:27.405Z,25.77
2022-09-01T13:27:54.993Z,26.35
2022-09-01T13:30:24.567Z,26.40
2022-09-01T13:35:39.208Z,27.32
2022-09-01T13:38:05.994Z,27.26
2022-09-01T13:40:32.876Z,27.61
2022-09-01T13:42:59.683Z,27.97
2022-09-01T13:45:26.495Z,28.13
2022-09-01T13:53:30.227Z,29.43
2022-09-01T13:58:24.629Z,30.99
2022-09-01T14:00:51.347Z,31.61
2022-09-01T14:03:19.438Z,30.86
2022-09-01T14:05:47.819Z,29.73
2022-09-01T14:08:20.995Z,27.96
2022-09-01T14:10:52.400Z,26.80
2022-09-01T14:13:21.487Z,26.60
2022-09-01T14:15:49.311Z,26.50
2022-09-01T14:41:34.422Z,30.86
2022-09-01T14:44:04.136Z,28.64
2022-09-01T14:46:34.403Z,28.99
2022-09-01T14:49:02.663Z,28.00
2022-09-01T14:54:18.368Z,27.40
2022-09-01T14:57:28.110Z,26.67
2022-09-01T14:59:32.644Z,25.86
2022-09-01T15:02:00.125Z,26.12
2022-09-01T15:04:27.916Z,26.00
2022-09-01T15:06:54.958Z,25.76
2022-09-01T15:09:21.644Z,25.29
2022-09-01T15:11:48.256Z,24.86
2022-09-01T15:14:15.115Z,25.01
2022-09-01T15:16:42.075Z,24.78
2022-09-01T15:19:11.312Z,24.68
2022-09-01T15:21:39.822Z,25.43
2022-09-01T15:24:09.245Z,25.30
2022-09-01T15:26:38.199Z,25.37
2022-09-01T15:29:05.339Z,24.97
2022-09-01T15:31:33.788Z,25.63
2022-09-01T15:34:02.540Z,25.54
2022-09-01T15:36:30.667Z,25.19
2022-09-01T15:38:58.424Z,25.66
2022-09-01T15:41:28.094Z,25.27
2022-09-01T15:43:56.208Z,25.58
2022-09-01T15:46:31.005Z,25.68
2022-09-01T15:48:59.923Z,25.38
2022-09-01T15:51:39.937Z,25.66
2022-09-01T15:54:10.480Z,25.39
2022-09-01T15:56:37.692Z,25.60
2022-09-01T15:59:06.488Z,25.75
2022-09-01T16:01:40.227Z,26.08
2022-09-01T16:04:15.809Z,26.02
2022-09-01T16:06:44.896Z,25.76
2022-09-01T16:09:12.537Z,25.40
2022-09-01T16:11:41.651Z,25.66
2022-09-01T16:14:08.477Z,25.79
2022-09-01T16:16:40.541Z,25.98
2022-09-01T16:19:16.001Z,25.73
2022-09-01T16:22:13.335Z,25.15
2022-09-01T16:24:49.715Z,24.79
2022-09-01T16:27:20.511Z,24.68
2022-09-01T16:29:54.905Z,24.94
2022-09-01T16:32:23.751Z,24.56
2022-09-01T16:34:52.111Z,24.13
2022-09-01T16:37:29.600Z,24.58
2022-09-01T16:40:29.931Z,24.82
2022-09-01T16:43:23.176Z,24.89
2022-09-01T16:46:02.255Z,25.10
2022-09-01T16:48:51.312Z,25.25
2022-09-01T16:51:31.931Z,25.01
2022-09-01T16:54:21.075Z,25.34
2022-09-01T16:57:04.726Z,25.16
2022-09-01T16:59:51.971Z,25.25
2022-09-01T17:03:17.047Z,25.23
2022-09-01T17:06:02.383Z,25.11
2022-09-01T17:08:38.805Z,25.06
2022-09-01T17:11:18.634Z,24.96
2022-09-01T17:13:52.174Z,24.94
2022-09-01T17:16:29.084Z,24.88
2022-09-01T17:18:58.043Z,24.64
2022-09-01T17:21:32.485Z,24.66
2022-09-01T17:24:12.362Z,24.37
2022-09-01T17:26:44.091Z,24.83
2022-09-01T17:29:34.253Z,24.64
2022-09-01T17:32:31.889Z,24.27
2022-09-01T17:35:07.664Z,24.09
2022-09-01T17:37:52.003Z,24.12
2022-09-01T17:40:45.021Z,24.59
2022-09-01T17:43:29.512Z,24.29
2022-09-01T17:46:14.290Z,23.91
2022-09-01T17:48:52.967Z,24.14
2022-09-01T17:51:54.655Z,23.87
2022-09-01T17:54:46.533Z,23.80
2022-09-01T17:57:34.779Z,23.29
2022-09-01T18:00:17.417Z,23.84
2022-09-01T18:03:22.787Z,23.70
2022-09-01T18:06:05.091Z,23.44
2022-09-01T18:08:43.882Z,23.77
2022-09-01T18:11:11.535Z,23.43
2022-09-01T18:14:03.599Z,23.33
2022-09-01T18:16:36.681Z,23.06
2022-09-01T18:19:08.368Z,23.26
2022-09-01T18:21:39.420Z,23.18
2022-09-01T18:24:14.269Z,23.12
2022-09-01T18:26:44.624Z,23.24
2022-09-01T18:29:11.353Z,22.53
2022-09-01T18:31:43.905Z,23.01
2022-09-01T18:34:10.708Z,22.69
2022-09-01T18:39:44.843Z,22.39
2022-09-01T18:42:28.985Z,22.19
2022-09-01T18:45:10.075Z,22.49
2022-09-01T18:48:14.899Z,22.10
2022-09-01T18:51:02.542Z,21.99
2022-09-01T18:53:32.295Z,22.14
2022-09-01T18:56:47.343Z,22.01
2022-09-01T18:59:36.974Z,21.75
2022-09-01T19:02:25.217Z,21.72
2022-09-01T19:05:02.658Z,21.59
2022-09-01T19:07:48.360Z,21.70
2022-09-01T19:10:32.175Z,21.78
2022-09-01T19:13:28.177Z,21.53
2022-09-01T19:16:13.669Z,21.69
2022-09-01T19:19:13.671Z,21.63
2022-09-01T19:21:46.655Z,21.38
2022-09-01T19:24:25.515Z,21.38
2022-09-01T19:27:01.658Z,21.16
2022-09-01T19:29:33.347Z,21.22
2022-09-01T19:32:05.274Z,20.91
2022-09-01T19:34:41.467Z,20.90
2022-09-01T19:37:10.978Z,20.86
2022-09-01T19:39:41.424Z,20.82
2022-09-01T19:42:28.921Z,20.87
2022-09-01T19:44:55.588Z,20.73
2022-09-01T19:47:42.152Z,20.59
2022-09-01T19:50:13.609Z,20.54
2022-09-01T19:52:43.251Z,20.33
2022-09-01T19:55:26.943Z,20.06
2022-09-01T19:58:02.747Z,19.91
2022-09-01T20:00:57.630Z,19.75
2022-09-01T20:03:53.680Z,19.88
2022-09-01T20:06:35.135Z,19.96
2022-09-01T20:09:12.151Z,20.11
2022-09-01T20:11:45.550Z,19.86
2022-09-01T20:14:24.506Z,19.69
2022-09-01T20:16:55.584Z,19.92
2022-09-01T20:19:37.484Z,19.88
2022-09-01T20:22:23.206Z,19.66
2022-09-01T20:24:51.983Z,19.65
2022-09-01T20:27:38.302Z,19.79
2022-09-01T20:30:14.852Z,19.73
2022-09-01T20:32:51.696Z,19.59
2022-09-01T20:35:39.203Z,19.82
2022-09-01T20:38:44.063Z,19.43
2022-09-01T20:41:28.880Z,19.68
2022-09-01T20:43:57.150Z,19.68
2022-09-01T20:46:26.450Z,19.54
2022-09-01T20:48:53.235Z,19.64
2022-09-01T20:51:38.502Z,20.05
2022-09-01T20:54:36.014Z,19.90
2022-09-01T20:57:31.832Z,19.58
2022-09-01T21:00:04.660Z,19.77
2022-09-01T21:03:11.867Z,19.88
2022-09-01T21:06:03.426Z,19.72
2022-09-01T21:08:55.090Z,19.63
2022-09-01T21:11:59.015Z,19.60
2022-09-01T21:14:59.139Z,19.39
2022-09-01T21:17:30.918Z,19.27
2022-09-01T21:20:22.086Z,19.27
2022-09-01T21:22:50.499Z,19.29
2022-09-01T21:25:17.424Z,19.07
2022-09-01T21:27:50.392Z,19.13
2022-09-01T21:30:18.983Z,18.90
2022-09-01T21:32:46.356Z,18.74
2022-09-01T21:35:17.384Z,18.62
2022-09-01T21:37:44.131Z,18.63
2022-09-01T21:40:12.706Z,18.59
2022-09-01T21:42:48.617Z,18.73
2022-09-01T21:45:17.946Z,18.59
2022-09-01T21:47:46.750Z,18.55
2022-09-01T21:50:15.892Z,18.40
2022-09-01T21:52:42.756Z,18.48
2022-09-01T21:55:09.630Z,18.46
2022-09-01T21:57:36.851Z,18.54
2022-09-01T22:00:14.661Z,18.41
2022-09-01T22:02:41.917Z,18.29
2022-09-01T22:05:09.271Z,18.35
2022-09-01T22:07:40.607Z,18.28
2022-09-01T22:10:12.809Z,18.24
2022-09-01T22:12:41.846Z,18.25
2022-09-01T22:15:10.731Z,18.13
2022-09-01T22:17:37.779Z,18.29
2022-09-01T22:20:07.386Z,18.20
2022-09-01T22:22:34.475Z,18.26
2022-09-01T22:25:08.692Z,18.35
2022-09-01T22:27:35.420Z,18.18
2022-09-01T22:30:04.256Z,18.26
2022-09-01T22:32:33.884Z,18.09
2022-09-01T22:35:09.143Z,18.09
2022-09-01T22:37:36.924Z,18.01
2022-09-01T22:40:05.864Z,17.97
2022-09-01T22:42:32.834Z,17.92
2022-09-01T22:44:59.618Z,17.85
2022-09-01T22:47:26.304Z,17.76
2022-09-01T22:49:54.730Z,17.82
2022-09-01T22:52:21.631Z,17.80
2022-09-01T22:54:49.129Z,17.54
2022-09-01T22:57:16.827Z,17.64
2022-09-01T22:59:43.878Z,17.53
2022-09-01T23:02:10.912Z,17.51
2022-09-01T23:04:38.836Z,17.51
2022-09-01T23:07:07.233Z,17.47
2022-09-01T23:09:34.726Z,17.50
2022-09-01T23:12:01.352Z,17.25
2022-09-01T23:14:28.575Z,17.11
2022-09-01T23:16:55.395Z,16.89
2022-09-01T23:19:23.175Z,16.53
2022-09-01T23:21:51.670Z,16.71
2022-09-01T23:24:19.935Z,17.10
2022-09-01T23:26:47.983Z,17.25
2022-09-01T23:29:14.820Z,17.31
2022-09-01T23:31:43.667Z,17.28
2022-09-01T23:34:10.526Z,17.37
2022-09-01T23:36:37.367Z,17.27
2022-09-01T23:39:06.269Z,17.29
2022-09-01T23:41:35.931Z,17.31
2022-09-01T23:44:05.322Z,17.35
2022-09-01T23:46:37.054Z,17.42
2022-09-01T23:49:04.959Z,17.25
2022-09-01T23:51:32.130Z,17.22
2022-09-01T23:53:59.335Z,17.15
2022-09-01T23:56:28.358Z,17.20
2022-09-01T23:58:55.351Z,17.07
